Time;durP1;ratioP1;P1;durP2;ratioP2;P2;SDS_P1;SDS_P2;PMS_P1;PMS_P2;Temp;Humidity;BMP_temperature;BMP_pressure;BME280_temperature;BME280_humidity;BME280_pressure;Samples;Min_cycle;Max_cycle;Signal;HPM_P1;HPM_P2
2022/06/24 00:00:31;;;;;;;;;;;17.30;94.90;;;;;;5116251;28;19935;-81
2022/06/24 00:03:01;;;;;;;;;;;17.20;94.70;;;;;;5113010;28;19924;-83
2022/06/24 00:05:29;;;;;;;;;;;16.90;94.80;;;;;;5101466;28;19930;-85
2022/06/24 00:07:57;;;;;;;;;;;17.10;94.90;;;;;;5111759;28;19924;-83
2022/06/24 00:10:32;;;;;;;;;;;17.10;95.30;;;;;;5108490;28;20019;-85
2022/06/24 00:13:04;;;;;;;;;;;17.10;95.20;;;;;;5124324;28;19927;-83
2022/06/24 00:15:33;;;;;;;;;;;17.00;95.30;;;;;;5115236;28;19988;-82
2022/06/24 00:18:15;;;;;;;;;;;16.90;95.80;;;;;;5087971;28;19924;-84
2022/06/24 00:20:44;;;;;;;;;;;16.80;95.80;;;;;;5111627;28;19935;-84
2022/06/24 00:23:15;;;;;;;;;;;16.90;95.70;;;;;;5093252;28;19939;-83
2022/06/24 00:25:46;;;;;;;;;;;16.90;95.90;;;;;;5097812;28;20405;-83
2022/06/24 00:28:20;;;;;;;;;;;16.90;95.80;;;;;;5107953;28;19923;-84
2022/06/24 00:30:52;;;;;;;;;;;16.80;95.90;;;;;;5106495;28;19938;-82
2022/06/24 00:33:30;;;;;;;;;;;16.80;95.90;;;;;;5109139;28;20434;-84
2022/06/24 00:36:05;;;;;;;;;;;16.80;95.90;;;;;;5096372;28;19927;-84
2022/06/24 00:38:34;;;;;;;;;;;16.80;96.10;;;;;;5126193;28;19932;-83
2022/06/24 00:41:10;;;;;;;;;;;16.80;96.10;;;;;;5106651;28;19942;-83
2022/06/24 00:43:39;;;;;;;;;;;16.70;96.20;;;;;;5104713;28;20415;-84
2022/06/24 00:46:16;;;;;;;;;;;16.70;96.40;;;;;;5103215;28;20402;-84
2022/06/24 00:48:48;;;;;;;;;;;16.70;96.60;;;;;;5121792;28;19924;-83
2022/06/24 00:51:17;;;;;;;;;;;16.70;96.50;;;;;;5093544;28;19931;-84
2022/06/24 00:53:46;;;;;;;;;;;16.70;96.70;;;;;;5122107;28;19927;-83
2022/06/24 00:56:18;;;;;;;;;;;16.70;96.80;;;;;;5121556;28;19932;-82
2022/06/24 00:58:56;;;;;;;;;;;16.60;96.80;;;;;;5102555;28;19928;-85
2022/06/24 01:01:37;;;;;;;;;;;16.60;97.30;;;;;;5119190;28;20467;-84
2022/06/24 01:04:10;;;;;;;;;;;16.80;97.60;;;;;;5089475;28;19935;-83
2022/06/24 01:06:41;;;;;;;;;;;16.50;97.80;;;;;;5108099;28;19924;-83
2022/06/24 01:09:10;;;;;;;;;;;16.40;97.80;;;;;;5086718;28;19924;-82
2022/06/24 01:11:40;;;;;;;;;;;16.40;98.10;;;;;;5121686;28;19928;-83
2022/06/24 01:14:08;;;;;;;;;;;15.50;98.10;;;;;;5121366;28;19939;-84
2022/06/24 01:16:36;;;;;;;;;;;16.40;98.50;;;;;;5086307;28;20374;-84
2022/06/24 01:19:10;;;;;;;;;;;16.30;98.80;;;;;;5120836;28;19924;-84
2022/06/24 01:21:43;;;;;;;;;;;16.20;99.20;;;;;;5120812;28;19943;-86
2022/06/24 01:24:23;;;;;;;;;;;16.20;99.50;;;;;;5120088;28;21292;-83
2022/06/24 01:26:54;;;;;;;;;;;16.10;99.90;;;;;;5102261;28;19931;-83
2022/06/24 01:29:26;;;;;;;;;;;16.10;99.90;;;;;;5120292;28;19924;-82
2022/06/24 01:31:57;;;;;;;;;;;16.10;99.90;;;;;;5101158;28;19927;-84
2022/06/24 01:34:32;;;;;;;;;;;16.10;99.90;;;;;;5116135;28;19930;-83
2022/06/24 01:37:00;;;;;;;;;;;16.10;99.90;;;;;;5100949;28;19924;-83
2022/06/24 01:39:28;;;;;;;;;;;16.10;99.90;;;;;;5102855;28;19928;-86
2022/06/24 01:41:58;;;;;;;;;;;16.10;99.90;;;;;;5100392;28;19958;-83
2022/06/24 01:44:28;;;;;;;;;;;16.10;99.90;;;;;;5088017;28;19954;-84
2022/06/24 01:46:56;;;;;;;;;;;16.10;99.90;;;;;;5102820;28;19923;-85
2022/06/24 01:49:23;;;;;;;;;;;16.10;99.90;;;;;;5099279;28;19942;-82
2022/06/24 01:51:53;;;;;;;;;;;16.20;99.90;;;;;;5077560;28;19947;-83
2022/06/24 01:54:23;;;;;;;;;;;16.20;99.90;;;;;;5122772;28;19928;-83
2022/06/24 01:57:00;;;;;;;;;;;16.20;99.90;;;;;;5124066;28;19947;-83
2022/06/24 01:59:46;;;;;;;;;;;16.30;99.90;;;;;;5122393;28;19938;-84
2022/06/24 02:02:26;;;;;;;;;;;16.30;99.90;;;;;;5125428;28;19930;-83
2022/06/24 02:04:58;;;;;;;;;;;16.40;99.90;;;;;;5124056;28;19931;-83
2022/06/24 02:07:27;;;;;;;;;;;16.40;99.90;;;;;;5111712;28;19931;-84
2022/06/24 02:15:28;;;;;;;;;;;16.50;99.90;;;;;;5120207;28;19927;-84
2022/06/24 02:17:56;;;;;;;;;;;16.50;99.90;;;;;;5117972;28;19924;-83
2022/06/24 02:20:25;;;;;;;;;;;16.50;99.90;;;;;;5101068;28;19930;-83
2022/06/24 02:22:53;;;;;;;;;;;16.40;99.90;;;;;;5119810;28;19924;-83
2022/06/24 02:25:21;;;;;;;;;;;16.60;99.90;;;;;;5100412;28;20283;-86
2022/06/24 02:27:49;;;;;;;;;;;16.60;99.90;;;;;;5118507;28;19927;-86
2022/06/24 02:30:19;;;;;;;;;;;16.60;99.90;;;;;;5119219;28;19924;-84
2022/06/24 02:32:49;;;;;;;;;;;16.50;99.90;;;;;;5119234;28;19923;-82
2022/06/24 02:35:18;;;;;;;;;;;16.50;99.90;;;;;;5084288;28;19923;-84
2022/06/24 02:37:46;;;;;;;;;;;16.50;99.90;;;;;;5084316;28;19924;-84
2022/06/24 02:43:00;;;;;;;;;;;16.40;99.90;;;;;;5089338;28;19935;-82
2022/06/24 02:45:28;;;;;;;;;;;16.40;99.90;;;;;;5085707;28;20332;-83
2022/06/24 02:47:58;;;;;;;;;;;16.40;99.90;;;;;;5122310;28;20351;-83
2022/06/24 02:50:26;;;;;;;;;;;16.40;99.90;;;;;;5124228;28;19923;-82
2022/06/24 02:52:56;;;;;;;;;;;16.30;99.90;;;;;;5074449;28;19931;-84
2022/06/24 02:55:24;;;;;;;;;;;16.30;99.90;;;;;;5117128;28;19924;-83
2022/06/24 02:57:53;;;;;;;;;;;16.30;99.90;;;;;;5102918;28;19931;-83
2022/06/24 03:00:22;;;;;;;;;;;16.30;99.90;;;;;;5093681;28;19924;-82
2022/06/24 03:02:56;;;;;;;;;;;16.30;99.90;;;;;;5123470;27;19923;-83
2022/06/24 03:05:26;;;;;;;;;;;16.30;99.90;;;;;;5114625;28;19947;-84
2022/06/24 03:07:55;;;;;;;;;;;16.20;99.90;;;;;;5102486;28;19925;-83
2022/06/24 03:10:23;;;;;;;;;;;16.20;99.90;;;;;;5105520;28;19935;-83
2022/06/24 03:12:52;;;;;;;;;;;15.60;99.90;;;;;;5123729;28;19931;-85
2022/06/24 03:15:21;;;;;;;;;;;16.10;99.90;;;;;;5126078;28;19923;-83
2022/06/24 03:17:49;;;;;;;;;;;16.20;99.90;;;;;;5089489;28;19931;-83
2022/06/24 03:20:18;;;;;;;;;;;16.10;99.90;;;;;;5092589;27;19941;-82
2022/06/24 03:22:47;;;;;;;;;;;16.10;99.90;;;;;;5135503;27;19932;-83
2022/06/24 03:25:16;;;;;;;;;;;16.10;99.90;;;;;;5085342;28;20386;-84
2022/06/24 03:27:45;;;;;;;;;;;16.10;99.90;;;;;;5119202;28;19930;-83
2022/06/24 03:30:14;;;;;;;;;;;16.00;99.90;;;;;;5105683;28;20334;-84
2022/06/24 03:32:43;;;;;;;;;;;16.00;99.90;;;;;;5090958;28;19931;-84
2022/06/24 03:35:11;;;;;;;;;;;15.90;99.90;;;;;;5126546;27;19924;-84
2022/06/24 03:37:40;;;;;;;;;;;15.90;99.90;;;;;;5141225;27;19920;-83
2022/06/24 03:40:10;;;;;;;;;;;15.90;99.90;;;;;;5108765;28;19923;-84
2022/06/24 03:42:39;;;;;;;;;;;15.90;99.90;;;;;;5127419;28;19931;-83
2022/06/24 03:45:12;;;;;;;;;;;15.90;99.90;;;;;;5127084;28;19924;-83
2022/06/24 03:47:39;;;;;;;;;;;15.90;99.90;;;;;;5095419;28;19931;-83
2022/06/24 03:50:09;;;;;;;;;;;15.90;99.90;;;;;;5130059;28;19934;-82
2022/06/24 03:52:40;;;;;;;;;;;15.90;99.90;;;;;;5124412;28;20344;-84
2022/06/24 03:55:10;;;;;;;;;;;15.90;99.90;;;;;;5100992;28;19920;-82
2022/06/24 03:57:43;;;;;;;;;;;15.90;99.90;;;;;;5129477;28;19930;-83
2022/06/24 04:00:13;;;;;;;;;;;15.90;99.90;;;;;;5093800;28;19935;-83
2022/06/24 04:02:44;;;;;;;;;;;15.90;99.90;;;;;;5107510;28;19928;-86
2022/06/24 04:05:18;;;;;;;;;;;15.90;99.90;;;;;;5125572;28;19930;-82
2022/06/24 04:07:45;;;;;;;;;;;15.90;99.90;;;;;;5125355;28;19935;-83
2022/06/24 04:10:14;;;;;;;;;;;15.90;99.90;;;;;;5127697;28;20291;-84
2022/06/24 04:12:44;;;;;;;;;;;15.90;99.90;;;;;;5128955;28;19924;-83
2022/06/24 04:15:13;;;;;;;;;;;15.90;99.90;;;;;;5109838;28;19927;-83
2022/06/24 04:17:42;;;;;;;;;;;15.90;99.90;;;;;;5123835;28;19924;-84
2022/06/24 04:20:17;;;;;;;;;;;17.90;99.90;;;;;;5106698;28;19923;-83
2022/06/24 04:22:45;;;;;;;;;;;15.90;99.90;;;;;;5125457;28;19943;-83
2022/06/24 04:25:15;;;;;;;;;;;15.90;99.90;;;;;;5102614;28;19924;-83
2022/06/24 04:27:43;;;;;;;;;;;15.80;99.90;;;;;;5104507;28;20438;-83
2022/06/24 04:30:13;;;;;;;;;;;15.80;99.90;;;;;;5121642;28;19928;-83
2022/06/24 04:32:41;;;;;;;;;;;15.80;99.90;;;;;;5102891;28;19924;-82
2022/06/24 04:35:11;;;;;;;;;;;15.70;99.90;;;;;;5122093;28;19931;-82
2022/06/24 04:37:41;;;;;;;;;;;15.80;99.90;;;;;;5118212;28;19924;-85
2022/06/24 04:40:13;;;;;;;;;;;15.80;99.90;;;;;;5123544;28;20409;-85
2022/06/24 04:42:45;;;;;;;;;;;15.80;99.90;;;;;;5113912;28;19923;-83
2022/06/24 04:45:13;;;;;;;;;;;15.80;99.90;;;;;;5123468;28;19930;-84
2022/06/24 04:47:41;;;;;;;;;;;15.80;99.90;;;;;;5119606;28;19931;-82
2022/06/24 04:50:09;;;;;;;;;;;15.80;99.90;;;;;;5121836;28;19931;-84
2022/06/24 04:52:39;;;;;;;;;;;15.80;99.90;;;;;;5119559;28;19938;-83
2022/06/24 04:55:15;;;;;;;;;;;15.80;99.90;;;;;;5122894;28;20522;-83
2022/06/24 04:57:43;;;;;;;;;;;15.80;99.90;;;;;;5074806;28;19939;-83
2022/06/24 05:00:13;;;;;;;;;;;16.50;99.90;;;;;;5113953;28;19924;-83
2022/06/24 05:02:43;;;;;;;;;;;15.80;99.90;;;;;;5115820;28;20542;-82
2022/06/24 05:05:12;;;;;;;;;;;15.90;99.90;;;;;;5115614;28;19927;-83
2022/06/24 05:07:46;;;;;;;;;;;15.90;99.90;;;;;;5121615;28;19928;-83
2022/06/24 05:10:17;;;;;;;;;;;15.90;99.90;;;;;;5111849;28;20316;-82
2022/06/24 05:12:49;;;;;;;;;;;15.80;99.90;;;;;;5112945;28;19928;-83
2022/06/24 05:15:26;;;;;;;;;;;15.90;99.90;;;;;;5122851;28;20363;-83
2022/06/24 05:17:57;;;;;;;;;;;15.80;99.90;;;;;;5102047;28;19935;-83
2022/06/24 05:20:26;;;;;;;;;;;15.80;99.90;;;;;;5090468;28;19923;-83
2022/06/24 05:22:59;;;;;;;;;;;15.80;99.90;;;;;;5088972;28;19924;-84
2022/06/24 05:25:31;;;;;;;;;;;15.80;99.90;;;;;;5105478;28;19935;-83
2022/06/24 05:28:08;;;;;;;;;;;15.80;99.90;;;;;;5101850;28;20034;-82
2022/06/24 05:30:36;;;;;;;;;;;15.90;99.90;;;;;;5090348;28;19924;-83
2022/06/24 05:33:06;;;;;;;;;;;16.80;99.90;;;;;;5109898;28;19924;-82
2022/06/24 05:35:37;;;;;;;;;;;16.00;99.90;;;;;;5105205;28;19931;-83
2022/06/24 05:38:07;;;;;;;;;;;16.00;99.90;;;;;;5123657;28;19933;-82
2022/06/24 05:40:36;;;;;;;;;;;16.00;99.90;;;;;;5122428;28;19928;-85
2022/06/24 05:43:07;;;;;;;;;;;16.00;99.90;;;;;;5080301;28;19925;-81
2022/06/24 05:45:39;;;;;;;;;;;16.00;99.90;;;;;;5104590;28;19935;-82
2022/06/24 05:48:10;;;;;;;;;;;16.10;99.90;;;;;;5097557;28;20181;-83
2022/06/24 05:50:39;;;;;;;;;;;16.10;99.90;;;;;;5105502;28;19931;-82
2022/06/24 05:56:02;;;;;;;;;;;16.30;99.90;;;;;;5122489;28;19934;-85
2022/06/24 05:58:43;;;;;;;;;;;16.30;99.90;;;;;;5079338;28;19924;-82
2022/06/24 06:01:15;;;;;;;;;;;16.30;99.90;;;;;;5121915;28;19927;-83
2022/06/24 06:03:44;;;;;;;;;;;16.40;99.90;;;;;;5087082;28;19930;-82
2022/06/24 06:06:15;;;;;;;;;;;16.40;99.90;;;;;;5100416;28;19931;-82
2022/06/24 06:08:43;;;;;;;;;;;16.40;99.90;;;;;;5083759;28;19924;-81
2022/06/24 06:11:22;;;;;;;;;;;16.50;99.90;;;;;;5118850;28;20314;-82
2022/06/24 06:13:51;;;;;;;;;;;16.60;99.90;;;;;;5118654;28;19924;-85
2022/06/24 06:16:22;;;;;;;;;;;16.70;99.90;;;;;;5102493;28;19932;-84
2022/06/24 06:18:52;;;;;;;;;;;17.10;99.90;;;;;;5127449;28;19930;-83
2022/06/24 06:21:21;;;;;;;;;;;17.00;99.90;;;;;;5107120;28;19934;-84
2022/06/24 06:23:55;;;;;;;;;;;17.30;99.90;;;;;;5104118;28;19930;-83
2022/06/24 06:26:28;;;;;;;;;;;16.90;99.90;;;;;;5105235;28;19923;-85
2022/06/24 06:28:58;;;;;;;;;;;15.70;99.90;;;;;;5128554;28;19931;-83
2022/06/24 06:31:29;;;;;;;;;;;17.10;99.90;;;;;;5130520;28;19935;-81
2022/06/24 06:33:59;;;;;;;;;;;17.10;99.90;;;;;;5106719;28;19927;-83
2022/06/24 06:36:29;;;;;;;;;;;17.10;99.90;;;;;;5132534;28;19930;-83
2022/06/24 06:38:58;;;;;;;;;;;17.20;99.90;;;;;;5107629;28;19928;-83
2022/06/24 06:41:30;;;;;;;;;;;17.20;99.90;;;;;;5096299;28;19924;-82
2022/06/24 06:43:58;;;;;;;;;;;16.70;99.90;;;;;;5101507;28;20370;-83
2022/06/24 06:46:28;;;;;;;;;;;17.20;99.90;;;;;;5116636;28;19928;-84
2022/06/24 06:48:57;;;;;;;;;;;17.30;99.90;;;;;;5100845;28;19930;-83
2022/06/24 06:51:25;;;;;;;;;;;17.40;99.90;;;;;;5078017;28;19928;-82
2022/06/24 06:53:54;;;;;;;;;;;17.50;99.90;;;;;;5112985;28;19928;-82
2022/06/24 06:56:24;;;;;;;;;;;17.50;99.90;;;;;;5129730;28;19940;-84
2022/06/24 06:59:02;;;;;;;;;;;17.60;99.90;;;;;;5111653;28;19927;-84
2022/06/24 07:01:34;;;;;;;;;;;17.70;99.80;;;;;;5129751;28;19927;-83
2022/06/24 07:04:30;;;;;;;;;;;17.70;99.50;;;;;;5134193;27;20148;-82
2022/06/24 07:06:58;;;;;;;;;;;17.80;99.40;;;;;;5122857;28;19924;-82
2022/06/24 07:09:26;;;;;;;;;;;18.00;99.40;;;;;;5119544;28;19931;-82
2022/06/24 07:11:55;;;;;;;;;;;18.00;99.00;;;;;;5126366;28;19924;-82
2022/06/24 07:14:23;;;;;;;;;;;18.10;99.10;;;;;;5124315;28;19928;-83
2022/06/24 07:16:53;;;;;;;;;;;18.20;99.00;;;;;;5107480;28;20193;-82
2022/06/24 07:19:25;;;;;;;;;;;18.30;98.40;;;;;;5110570;28;19928;-82
2022/06/24 07:21:57;;;;;;;;;;;18.30;98.30;;;;;;5069398;28;19932;-85
2022/06/24 07:24:26;;;;;;;;;;;19.40;98.60;;;;;;5072221;28;19939;-83
2022/06/24 07:26:58;;;;;;;;;;;18.40;97.70;;;;;;5108510;28;19930;-83
2022/06/24 07:29:29;;;;;;;;;;;18.40;97.50;;;;;;5110341;28;19950;-82
2022/06/24 07:31:57;;;;;;;;;;;18.50;97.70;;;;;;5111862;28;19928;-82
2022/06/24 07:34:32;;;;;;;;;;;18.50;97.80;;;;;;5125165;28;19923;-81
2022/06/24 07:37:07;;;;;;;;;;;18.50;97.70;;;;;;5106389;28;19924;-81
2022/06/24 07:39:42;;;;;;;;;;;17.30;97.20;;;;;;5092831;28;19927;-84
2022/06/24 07:42:13;;;;;;;;;;;18.80;97.20;;;;;;5124932;28;19931;-85
2022/06/24 07:44:43;;;;;;;;;;;18.70;96.50;;;;;;5126610;28;19932;-82
2022/06/24 07:47:11;;;;;;;;;;;18.70;96.60;;;;;;5110227;28;19934;-82
2022/06/24 07:49:44;;;;;;;;;;;18.80;96.70;;;;;;5091239;28;19934;-82
2022/06/24 07:52:18;;;;;;;;;;;18.80;96.70;;;;;;5092528;28;19928;-82
2022/06/24 07:56:56;;;;;;;;;;;18.90;96.40;;;;;;5109954;28;20549;-82
2022/06/24 07:57:43;;;;;;;;;;;18.90;96.30;;;;;;5108380;28;19920;-82
2022/06/24 08:00:13;;;;;;;;;;;19.00;96.50;;;;;;5109623;28;19934;-83
2022/06/24 08:02:47;;;;;;;;;;;19.10;96.50;;;;;;5106656;28;19932;-82
2022/06/24 08:05:26;;;;;;;;;;;19.20;96.20;;;;;;5098376;28;19912;-82
2022/06/24 08:07:55;;;;;;;;;;;19.20;96.20;;;;;;5082864;28;19939;-82
2022/06/24 08:10:36;;;;;;;;;;;19.30;96.10;;;;;;5091171;28;19926;-81
2022/06/24 08:13:12;;;;;;;;;;;19.30;95.90;;;;;;5081740;28;19928;-82
2022/06/24 08:15:54;;;;;;;;;;;19.40;95.90;;;;;;5081146;28;19931;-82
2022/06/24 08:18:23;;;;;;;;;;;19.40;95.80;;;;;;5088521;28;19934;-82
2022/06/24 08:20:59;;;;;;;;;;;19.40;95.80;;;;;;5070398;28;19931;-81
2022/06/24 08:23:33;;;;;;;;;;;19.50;96.00;;;;;;5086697;28;20158;-82
2022/06/24 08:26:02;;;;;;;;;;;19.80;95.70;;;;;;5084692;28;19936;-80
2022/06/24 08:28:32;;;;;;;;;;;19.70;95.90;;;;;;5070566;28;19928;-81
2022/06/24 08:31:01;;;;;;;;;;;19.80;95.70;;;;;;5068236;28;19928;-80
2022/06/24 08:33:36;;;;;;;;;;;19.90;95.50;;;;;;5090465;28;20363;-79
2022/06/24 08:36:04;;;;;;;;;;;19.90;95.30;;;;;;5085833;28;19925;-80
2022/06/24 08:38:32;;;;;;;;;;;20.00;95.30;;;;;;5084844;28;20322;-80
2022/06/24 08:41:02;;;;;;;;;;;20.10;95.30;;;;;;5084718;28;19925;-79
2022/06/24 08:43:34;;;;;;;;;;;20.20;95.20;;;;;;5058297;28;19925;-81
2022/06/24 08:46:08;;;;;;;;;;;20.30;95.00;;;;;;5082867;28;19928;-81
2022/06/24 08:48:38;;;;;;;;;;;20.40;94.50;;;;;;5069467;28;19932;-80
2022/06/24 08:51:11;;;;;;;;;;;20.40;94.50;;;;;;5052696;28;19925;-81
2022/06/24 08:53:46;;;;;;;;;;;20.40;94.20;;;;;;5093465;28;19928;-80
2022/06/24 08:56:40;;;;;;;;;;;20.30;94.30;;;;;;5055869;28;19929;-81
2022/06/24 08:59:18;;;;;;;;;;;20.20;94.50;;;;;;5063613;28;19928;-79
2022/06/24 09:01:47;;;;;;;;;;;19.60;94.40;;;;;;5082957;28;19924;-81
2022/06/24 09:04:16;;;;;;;;;;;20.40;94.80;;;;;;5086078;28;19924;-81
2022/06/24 09:06:49;;;;;;;;;;;20.40;94.80;;;;;;5118807;28;19942;-81
2022/06/24 09:09:23;;;;;;;;;;;20.60;94.60;;;;;;5115838;28;20213;-79
2022/06/24 09:12:01;;;;;;;;;;;20.70;94.10;;;;;;5069048;28;20298;-81
2022/06/24 09:14:47;;;;;;;;;;;20.60;94.10;;;;;;5124634;28;19924;-81
2022/06/24 09:17:16;;;;;;;;;;;21.00;94.10;;;;;;5118574;28;19927;-80
2022/06/24 09:20:02;;;;;;;;;;;21.10;93.50;;;;;;5105039;28;19927;-80
2022/06/24 09:23:09;;;;;;;;;;;21.00;93.50;;;;;;5077634;28;19934;-79
2022/06/24 09:25:58;;;;;;;;;;;21.10;93.50;;;;;;5126460;28;19928;-79
2022/06/24 09:28:30;;;;;;;;;;;21.10;93.30;;;;;;5087989;28;19927;-80
2022/06/24 09:31:05;;;;;;;;;;;21.10;93.40;;;;;;5085577;28;19924;-82
2022/06/24 09:33:44;;;;;;;;;;;21.20;93.40;;;;;;5130503;27;19924;-80
2022/06/24 09:36:23;;;;;;;;;;;21.30;93.10;;;;;;5108234;28;19939;-82
2022/06/24 09:39:00;;;;;;;;;;;21.20;93.40;;;;;;5105977;28;19932;-81
2022/06/24 09:41:30;;;;;;;;;;;21.10;93.60;;;;;;5082385;28;19938;-86
2022/06/24 09:43:58;;;;;;;;;;;21.10;93.50;;;;;;5087894;28;19926;-79
2022/06/24 09:46:29;;;;;;;;;;;21.20;93.70;;;;;;5106447;28;20378;-80
2022/06/24 09:49:06;;;;;;;;;;;21.30;93.60;;;;;;5131992;27;19923;-79
2022/06/24 09:54:38;;;;;;;;;;;21.50;93.40;;;;;;5106751;28;19924;-81
2022/06/24 09:57:12;;;;;;;;;;;21.70;93.40;;;;;;5106277;28;19923;-80
2022/06/24 10:02:49;;;;;;;;;;;21.80;92.60;;;;;;5076439;28;20298;-80
2022/06/24 10:05:22;;;;;;;;;;;21.90;92.30;;;;;;5041275;28;19925;-81
2022/06/24 10:08:01;;;;;;;;;;;21.90;92.10;;;;;;5041947;28;19929;-79
2022/06/24 10:10:35;;;;;;;;;;;22.10;91.50;;;;;;5047731;28;19925;-80
2022/06/24 10:13:26;;;;;;;;;;;22.10;91.80;;;;;;5035180;28;20086;-78
2022/06/24 10:15:57;;;;;;;;;;;22.40;91.90;;;;;;5048113;28;19925;-80
2022/06/24 10:18:28;;;;;;;;;;;22.60;91.80;;;;;;5047396;28;19925;-79
2022/06/24 10:21:03;;;;;;;;;;;22.80;91.30;;;;;;5070458;28;19931;-78
2022/06/24 10:23:44;;;;;;;;;;;22.90;91.20;;;;;;5028298;28;20426;-79
2022/06/24 10:26:32;;;;;;;;;;;23.00;91.20;;;;;;5037921;28;19928;-79
2022/06/24 10:29:04;;;;;;;;;;;23.10;90.70;;;;;;5058045;28;19931;-78
2022/06/24 10:31:49;;;;;;;;;;;23.20;90.90;;;;;;5072049;28;19936;-79
2022/06/24 10:34:20;;;;;;;;;;;23.10;90.40;;;;;;5085467;28;19927;-79
2022/06/24 10:36:54;;;;;;;;;;;22.80;90.70;;;;;;5077644;28;20291;-80
2022/06/24 10:39:27;;;;;;;;;;;22.80;90.80;;;;;;5096852;28;19924;-81
2022/06/24 10:42:14;;;;;;;;;;;22.80;90.70;;;;;;5099644;28;19932;-81
2022/06/24 10:44:58;;;;;;;;;;;22.80;90.90;;;;;;5091830;28;19935;-79
2022/06/24 10:47:36;;;;;;;;;;;23.00;90.70;;;;;;5097235;28;19931;-78
2022/06/24 10:50:06;;;;;;;;;;;23.00;90.20;;;;;;5115981;28;19931;-78
2022/06/24 10:52:46;;;;;;;;;;;22.90;90.50;;;;;;4729471;28;9999840;-80
2022/06/24 10:55:17;;;;;;;;;;;22.50;90.50;;;;;;5118291;28;19923;-79
2022/06/24 10:57:52;;;;;;;;;;;22.10;90.30;;;;;;5118139;28;19924;-79
2022/06/24 11:00:21;;;;;;;;;;;22.40;90.80;;;;;;5099452;28;19928;-80
2022/06/24 11:02:54;;;;;;;;;;;22.20;90.90;;;;;;5115864;28;19924;-79
2022/06/24 11:05:23;;;;;;;;;;;22.10;91.20;;;;;;5094134;28;19930;-80
2022/06/24 11:07:51;;;;;;;;;;;22.20;91.50;;;;;;5113681;28;19932;-80
2022/06/24 11:10:22;;;;;;;;;;;22.30;91.60;;;;;;5121748;28;19931;-79
2022/06/24 11:12:58;;;;;;;;;;;22.40;91.50;;;;;;5082266;28;19931;-78
2022/06/24 11:15:32;;;;;;;;;;;22.60;91.30;;;;;;5119828;28;19927;-79
2022/06/24 11:18:09;;;;;;;;;;;22.50;91.10;;;;;;5117198;28;19924;-79
2022/06/24 11:20:56;;;;;;;;;;;22.60;91.30;;;;;;5083593;28;19943;-80
2022/06/24 11:23:30;;;;;;;;;;;22.70;90.90;;;;;;5119770;28;19927;-79
2022/06/24 11:26:18;;;;;;;;;;;22.80;91.10;;;;;;5084862;28;19935;-81
2022/06/24 11:28:51;;;;;;;;;;;22.80;90.70;;;;;;5079764;28;19924;-81
2022/06/24 11:31:25;;;;;;;;;;;23.00;90.50;;;;;;5103264;28;20298;-81
2022/06/24 11:34:03;;;;;;;;;;;23.00;90.40;;;;;;5081782;28;19939;-83
2022/06/24 11:36:42;;;;;;;;;;;22.90;90.50;;;;;;5063201;28;20298;-80
2022/06/24 11:39:13;;;;;;;;;;;23.00;90.60;;;;;;5096950;28;19931;-79
2022/06/24 11:41:46;;;;;;;;;;;23.10;90.80;;;;;;5067689;28;19932;-79
2022/06/24 11:44:33;;;;;;;;;;;23.30;90.40;;;;;;5111105;28;20287;-80
2022/06/24 11:47:13;;;;;;;;;;;23.60;90.20;;;;;;5097936;28;19935;-81
2022/06/24 11:49:45;;;;;;;;;;;23.70;89.70;;;;;;5135291;27;20014;-79
2022/06/24 11:52:14;;;;;;;;;;;24.10;89.20;;;;;;5118038;28;19928;-80
2022/06/24 11:54:42;;;;;;;;;;;23.80;88.80;;;;;;5118819;28;20449;-79
2022/06/24 11:57:10;;;;;;;;;;;24.00;89.50;;;;;;5132232;27;19942;-79
2022/06/24 11:59:39;;;;;;;;;;;24.30;89.00;;;;;;5082192;28;19931;-80
2022/06/24 12:02:08;;;;;;;;;;;24.50;88.10;;;;;;5111283;28;19935;-81
2022/06/24 12:04:39;;;;;;;;;;;24.60;87.00;;;;;;5119365;28;19923;-80
2022/06/24 12:07:10;;;;;;;;;;;24.60;86.60;;;;;;5113808;28;19931;-81
2022/06/24 12:09:38;;;;;;;;;;;24.50;86.10;;;;;;5097877;28;19924;-82
2022/06/24 12:12:12;;;;;;;;;;;24.60;87.00;;;;;;5122368;28;19928;-78
2022/06/24 12:14:53;;;;;;;;;;;24.60;85.70;;;;;;5104950;28;19939;-80
2022/06/24 12:17:20;;;;;;;;;;;24.60;85.70;;;;;;5110820;28;19924;-81
2022/06/24 12:19:56;;;;;;;;;;;24.70;85.50;;;;;;5119187;28;19928;-80
2022/06/24 12:22:23;;;;;;;;;;;24.80;85.90;;;;;;5121795;28;19939;-82
2022/06/24 12:25:00;;;;;;;;;;;24.80;84.20;;;;;;5103088;28;19931;-80
2022/06/24 12:27:36;;;;;;;;;;;24.80;84.60;;;;;;5115827;28;19927;-81
2022/06/24 12:30:06;;;;;;;;;;;24.10;83.80;;;;;;5118091;28;19930;-80
2022/06/24 12:32:47;;;;;;;;;;;24.80;84.40;;;;;;5090415;28;20378;-82
2022/06/24 12:35:33;;;;;;;;;;;25.00;84.60;;;;;;5120927;28;19923;-81
2022/06/24 12:38:06;;;;;;;;;;;25.30;84.30;;;;;;5114908;28;20163;-79
2022/06/24 12:40:44;;;;;;;;;;;25.50;83.10;;;;;;5122595;28;19931;-82
2022/06/24 12:43:13;;;;;;;;;;;25.40;83.30;;;;;;5107744;28;20394;-80
2022/06/24 12:45:43;;;;;;;;;;;25.40;83.40;;;;;;5103297;28;19928;-82
2022/06/24 12:51:24;;;;;;;;;;;25.10;83.70;;;;;;5105951;28;19927;-80
2022/06/24 12:53:54;;;;;;;;;;;24.70;84.50;;;;;;5084492;28;19924;-81
2022/06/24 12:56:24;;;;;;;;;;;24.40;84.70;;;;;;5098977;28;19932;-81
2022/06/24 12:58:53;;;;;;;;;;;24.10;85.60;;;;;;5120612;28;19928;-80
2022/06/24 13:01:29;;;;;;;;;;;24.00;86.50;;;;;;5117671;28;19938;-80
2022/06/24 13:03:59;;;;;;;;;;;23.80;87.00;;;;;;5114012;28;19932;-78
2022/06/24 13:06:28;;;;;;;;;;;23.70;87.00;;;;;;5115228;28;19934;-78
2022/06/24 13:08:59;;;;;;;;;;;23.50;86.70;;;;;;5080793;28;19932;-80
2022/06/24 13:11:28;;;;;;;;;;;23.70;87.40;;;;;;5110856;27;19928;-79
2022/06/24 13:13:56;;;;;;;;;;;23.00;87.10;;;;;;5100633;28;19932;-80
2022/06/24 13:16:25;;;;;;;;;;;22.90;87.70;;;;;;5094926;28;20214;-78
2022/06/24 13:18:54;;;;;;;;;;;22.80;87.90;;;;;;5082557;28;20380;-81
2022/06/24 13:21:23;;;;;;;;;;;22.80;87.80;;;;;;5098335;28;19924;-80
2022/06/24 13:23:53;;;;;;;;;;;23.00;87.70;;;;;;5098323;28;19927;-80
2022/06/24 13:26:20;;;;;;;;;;;23.30;87.60;;;;;;5114629;28;19928;-80
2022/06/24 13:28:50;;;;;;;;;;;23.70;86.70;;;;;;5067123;28;19928;-78
2022/06/24 13:31:18;;;;;;;;;;;24.10;86.60;;;;;;5099341;28;19935;-83
2022/06/24 13:33:49;;;;;;;;;;;24.30;86.00;;;;;;5078737;28;20425;-81
2022/06/24 13:36:17;;;;;;;;;;;24.40;86.30;;;;;;5105548;28;20688;-82
2022/06/24 13:38:45;;;;;;;;;;;24.60;85.90;;;;;;5114634;28;19934;-82
2022/06/24 13:41:13;;;;;;;;;;;24.60;85.80;;;;;;5132508;27;19928;-83
2022/06/24 13:43:41;;;;;;;;;;;24.80;85.60;;;;;;5063801;28;19924;-85
2022/06/24 13:46:09;;;;;;;;;;;24.90;85.20;;;;;;5101549;28;19928;-84
2022/06/24 13:48:37;;;;;;;;;;;24.90;84.60;;;;;;5110552;28;19934;-84
2022/06/24 13:51:04;;;;;;;;;;;24.90;84.90;;;;;;5093988;28;20402;-81
2022/06/24 13:53:33;;;;;;;;;;;24.60;84.40;;;;;;5078635;28;19928;-82
2022/06/24 13:56:00;;;;;;;;;;;24.50;85.30;;;;;;5094184;28;19935;-83
2022/06/24 13:58:29;;;;;;;;;;;24.20;85.60;;;;;;5113064;28;19928;-81
2022/06/24 14:00:57;;;;;;;;;;;24.00;85.90;;;;;;5080667;28;19935;-82
2022/06/24 14:03:26;;;;;;;;;;;23.80;86.60;;;;;;5075646;28;19927;-82
2022/06/24 14:05:53;;;;;;;;;;;23.60;87.00;;;;;;5085799;28;19924;-82
2022/06/24 14:08:22;;;;;;;;;;;23.20;87.30;;;;;;5082662;28;19925;-81
2022/06/24 14:10:51;;;;;;;;;;;23.20;87.90;;;;;;5066625;28;19928;-81
2022/06/24 14:13:23;;;;;;;;;;;23.00;89.10;;;;;;5065099;28;19931;-81
2022/06/24 14:15:51;;;;;;;;;;;23.30;89.70;;;;;;5093046;28;19932;-81
2022/06/24 14:18:26;;;;;;;;;;;22.70;90.20;;;;;;5063309;28;19924;-82
2022/06/24 14:20:54;;;;;;;;;;;22.70;90.10;;;;;;5067023;28;19936;-84
2022/06/24 14:26:14;;;;;;;;;;;23.00;89.90;;;;;;5043757;28;19929;-78
2022/06/24 14:28:42;;;;;;;;;;;23.30;89.20;;;;;;5058900;28;19926;-79
2022/06/24 14:31:21;;;;;;;;;;;23.70;89.00;;;;;;5057942;28;20008;-82
2022/06/24 14:33:49;;;;;;;;;;;24.30;88.00;;;;;;5045103;28;19939;-82
2022/06/24 14:36:17;;;;;;;;;;;24.60;87.30;;;;;;5066893;28;19940;-83
2022/06/24 14:41:31;;;;;;;;;;;24.70;86.10;;;;;;5048154;28;19936;-80
2022/06/24 14:43:58;;;;;;;;;;;24.30;87.00;;;;;;5065635;28;20390;-80
2022/06/24 14:46:26;;;;;;;;;;;23.90;87.30;;;;;;5076505;28;20229;-81
2022/06/24 14:48:53;;;;;;;;;;;23.90;88.50;;;;;;5078638;28;19928;-82
2022/06/24 14:51:36;;;;;;;;;;;23.80;88.40;;;;;;5092250;28;19932;-81
2022/06/24 14:54:04;;;;;;;;;;;23.70;88.30;;;;;;5062482;28;19932;-81
2022/06/24 14:56:33;;;;;;;;;;;23.60;88.80;;;;;;5081579;28;19931;-82
2022/06/24 14:59:03;;;;;;;;;;;23.50;88.50;;;;;;5063639;28;19924;-87
2022/06/24 15:01:56;;;;;;;;;;;23.50;88.70;;;;;;5059617;28;19924;-80
2022/06/24 15:04:23;;;;;;;;;;;23.20;88.60;;;;;;5075569;28;20047;-82
2022/06/24 15:06:52;;;;;;;;;;;23.10;89.50;;;;;;5116828;28;19927;-81
2022/06/24 15:09:21;;;;;;;;;;;22.80;90.00;;;;;;5081170;28;19935;-82